createdAt,value
2022-08-27T00:01:51.651Z,101367.63
2022-08-27T00:12:13.671Z,101368.50
2022-08-27T00:22:35.442Z,101354.31
2022-08-27T00:32:57.151Z,101353.88
2022-08-27T00:43:28.036Z,101343.16
2022-08-27T00:53:51.701Z,101358.50
2022-08-27T01:04:13.251Z,101346.31
2022-08-27T01:14:35.591Z,101355.25
2022-08-27T01:25:01.622Z,101357.09
2022-08-27T01:35:23.972Z,101358.28
2022-08-27T01:45:49.263Z,101363.03
2022-08-27T01:56:11.529Z,101378.09
2022-08-27T02:06:33.620Z,101379.34
2022-08-27T02:16:56.174Z,101370.59
2022-08-27T02:27:18.446Z,101380.91
2022-08-27T02:37:40.212Z,101371.16
2022-08-27T02:48:01.890Z,101376.59
2022-08-27T02:58:23.510Z,101368.25
2022-08-27T03:08:53.066Z,101366.03
2022-08-27T03:19:18.664Z,101369.50
2022-08-27T03:29:45.232Z,101355.59
2022-08-27T03:40:08.153Z,101360.97
2022-08-27T03:50:29.803Z,101350.84
2022-08-27T04:00:51.370Z,101355.03
2022-08-27T04:11:12.937Z,101346.66
2022-08-27T04:21:35.721Z,101337.78
2022-08-27T04:31:57.807Z,101332.75
2022-08-27T04:42:20.019Z,101339.59
2022-08-27T04:52:41.619Z,101360.00
2022-08-27T05:03:03.222Z,101361.69
2022-08-27T05:13:24.838Z,101366.84
2022-08-27T05:23:46.553Z,101370.88
2022-08-27T05:34:10.451Z,101371.69
2022-08-27T05:44:41.129Z,101375.16
2022-08-27T05:55:03.146Z,101380.06
2022-08-27T06:05:24.750Z,101371.59
2022-08-27T06:15:46.382Z,101380.47
2022-08-27T06:26:13.821Z,101381.72
2022-08-27T06:36:41.540Z,101380.06
2022-08-27T06:47:03.878Z,101392.13
2022-08-27T06:57:25.497Z,101400.22
2022-08-27T07:07:48.859Z,101407.72
2022-08-27T07:18:11.180Z,101406.97
2022-08-27T07:28:34.147Z,101418.25
2022-08-27T07:39:00.673Z,101415.38
2022-08-27T07:49:23.621Z,101421.25
2022-08-27T07:59:45.242Z,101429.69
2022-08-27T08:10:09.311Z,101431.16
2022-08-27T08:20:56.590Z,101434.91
2022-08-27T08:31:13.454Z,101453.34
2022-08-27T08:41:53.816Z,101454.44
2022-08-27T08:52:34.031Z,101472.22
2022-08-27T09:02:55.701Z,101477.47
2022-08-27T09:13:25.217Z,101481.13
2022-08-27T09:24:08.215Z,101492.50
2022-08-27T09:34:41.424Z,101495.84
2022-08-27T09:45:08.670Z,101503.44
2022-08-27T09:55:36.755Z,101507.75
2022-08-27T10:05:59.114Z,101490.84
2022-08-27T10:16:51.050Z,101483.28
2022-08-27T10:27:19.730Z,101483.50
2022-08-27T10:37:56.543Z,101482.69
2022-08-27T10:48:25.659Z,101489.91
2022-08-27T10:58:58.124Z,101484.31
2022-08-27T11:09:26.855Z,101493.84
2022-08-27T11:20:04.719Z,101489.47
2022-08-27T11:30:38.534Z,101493.47
2022-08-27T11:41:44.875Z,101483.22
2022-08-27T11:52:09.177Z,101472.34
2022-08-27T12:02:30.818Z,101478.38
2022-08-27T12:13:17.054Z,101468.91
2022-08-27T12:24:09.049Z,101463.59
2022-08-27T12:34:41.640Z,101465.56
2022-08-27T12:45:05.291Z,101467.94
2022-08-27T12:55:45.922Z,101468.28
2022-08-27T13:06:21.141Z,101466.50
2022-08-27T13:16:51.584Z,101456.91
2022-08-27T13:27:13.101Z,101460.16
2022-08-27T13:37:47.926Z,101462.31
2022-08-27T13:48:12.581Z,101457.56
2022-08-27T13:58:35.801Z,101471.81
2022-08-27T14:08:57.633Z,101469.31
2022-08-27T14:19:33.263Z,101469.97
2022-08-27T14:29:58.493Z,101470.56
2022-08-27T14:40:20.638Z,101472.84
2022-08-27T14:50:42.592Z,101471.06
2022-08-27T15:01:04.942Z,101474.34
2022-08-27T15:11:33.876Z,101488.78
2022-08-27T15:22:10.110Z,101493.06
2022-08-27T15:32:36.934Z,101503.31
2022-08-27T15:43:02.296Z,101501.97
2022-08-27T15:53:25.628Z,101519.06
2022-08-27T16:03:47.583Z,101523.06
2022-08-27T16:14:10.668Z,101532.44
2022-08-27T16:24:32.327Z,101536.16
2022-08-27T16:34:55.825Z,101545.97
2022-08-27T16:45:22.626Z,101554.16
2022-08-27T16:55:47.403Z,101540.84
2022-08-27T17:06:10.593Z,101545.63
2022-08-27T17:16:34.375Z,101545.66
2022-08-27T17:26:55.941Z,101540.38
2022-08-27T17:37:18.867Z,101558.41
2022-08-27T17:47:40.594Z,101567.44
2022-08-27T17:58:02.204Z,101583.16
2022-08-27T18:08:23.747Z,101591.38
2022-08-27T18:18:47.619Z,101599.16
2022-08-27T18:29:10.472Z,101584.69
2022-08-27T18:39:33.141Z,101603.06
2022-08-27T18:49:56.134Z,101605.50
2022-08-27T19:00:19.205Z,101619.63
2022-08-27T19:10:40.855Z,101619.25
2022-08-27T19:21:02.671Z,101624.75
2022-08-27T19:31:24.513Z,101638.94
2022-08-27T19:41:46.155Z,101636.94
2022-08-27T19:52:08.754Z,101636.00
2022-08-27T20:02:30.443Z,101634.19
2022-08-27T20:12:52.079Z,101631.81
2022-08-27T20:23:13.902Z,101626.78
2022-08-27T20:33:35.501Z,101639.13
2022-08-27T20:43:57.225Z,101635.19
2022-08-27T20:54:18.794Z,101626.66
2022-08-27T21:04:46.465Z,101636.63
2022-08-27T21:15:09.188Z,101633.53
2022-08-27T21:25:30.794Z,101630.97
2022-08-27T21:35:52.652Z,101635.06
2022-08-27T21:46:14.297Z,101631.22
2022-08-27T21:56:35.884Z,101629.81
2022-08-27T22:06:57.729Z,101631.22
2022-08-27T22:17:19.253Z,101635.63
2022-08-27T22:27:40.847Z,101643.16
2022-08-27T22:38:02.558Z,101636.00
2022-08-27T22:48:24.976Z,101641.25
2022-08-27T22:58:46.539Z,101646.38
2022-08-27T23:09:08.051Z,101652.66
2022-08-27T23:19:30.886Z,101650.88
2022-08-27T23:29:52.966Z,101645.31
2022-08-27T23:40:15.120Z,101648.56
2022-08-27T23:50:37.884Z,101650.00
